sensor_id;sensor_type;location;lat;lon;timestamp;temperature;humidity
59301;DHT22;45073;52.740;6.784;2023-10-09T00:02:08;14.70;99.90
59301;DHT22;45073;52.740;6.784;2023-10-09T00:04:35;14.60;99.90
59301;DHT22;45073;52.740;6.784;2023-10-09T00:07:07;14.60;99.90
59301;DHT22;45073;52.740;6.784;2023-10-09T00:09:37;14.60;99.90
59301;DHT22;45073;52.740;6.784;2023-10-09T00:12:16;14.60;99.90
59301;DHT22;45073;52.740;6.784;2023-10-09T00:14:42;14.50;99.90
59301;DHT22;45073;52.740;6.784;2023-10-09T00:17:14;14.50;99.90
59301;DHT22;45073;52.740;6.784;2023-10-09T00:19:40;14.60;99.90
59301;DHT22;45073;52.740;6.784;2023-10-09T00:22:08;14.60;99.90
59301;DHT22;45073;52.740;6.784;2023-10-09T00:24:37;14.50;99.90
59301;DHT22;45073;52.740;6.784;2023-10-09T00:27:10;14.40;99.90
59301;DHT22;45073;52.740;6.784;2023-10-09T00:29:44;14.40;99.90
59301;DHT22;45073;52.740;6.784;2023-10-09T00:32:12;14.40;99.90
59301;DHT22;45073;52.740;6.784;2023-10-09T00:34:57;14.40;99.90
59301;DHT22;45073;52.740;6.784;2023-10-09T00:37:25;14.40;99.90
59301;DHT22;45073;52.740;6.784;2023-10-09T00:39:55;14.40;99.90
59301;DHT22;45073;52.740;6.784;2023-10-09T00:42:26;14.40;99.90
59301;DHT22;45073;52.740;6.784;2023-10-09T00:45:04;14.50;99.90
59301;DHT22;45073;52.740;6.784;2023-10-09T00:47:31;14.40;99.90
59301;DHT22;45073;52.740;6.784;2023-10-09T00:50:09;14.30;99.90
59301;DHT22;45073;52.740;6.784;2023-10-09T00:52:54;14.30;99.90
59301;DHT22;45073;52.740;6.784;2023-10-09T00:55:35;14.20;99.90
59301;DHT22;45073;52.740;6.784;2023-10-09T00:58:08;14.20;99.90
59301;DHT22;45073;52.740;6.784;2023-10-09T01:00:42;14.20;99.90
59301;DHT22;45073;52.740;6.784;2023-10-09T01:03:18;14.20;99.90
59301;DHT22;45073;52.740;6.784;2023-10-09T01:05:45;14.30;99.90
59301;DHT22;45073;52.740;6.784;2023-10-09T01:08:21;14.20;99.90
59301;DHT22;45073;52.740;6.784;2023-10-09T01:11:06;14.30;99.90
59301;DHT22;45073;52.740;6.784;2023-10-09T01:13:36;14.30;99.90
59301;DHT22;45073;52.740;6.784;2023-10-09T01:16:07;14.30;99.90
59301;DHT22;45073;52.740;6.784;2023-10-09T01:18:39;14.20;99.90
59301;DHT22;45073;52.740;6.784;2023-10-09T01:21:09;14.20;99.90
59301;DHT22;45073;52.740;6.784;2023-10-09T01:23:40;14.10;99.90
59301;DHT22;45073;52.740;6.784;2023-10-09T01:26:25;14.10;99.90
59301;DHT22;45073;52.740;6.784;2023-10-09T01:28:50;14.10;99.90
59301;DHT22;45073;52.740;6.784;2023-10-09T01:31:16;14.00;99.90
59301;DHT22;45073;52.740;6.784;2023-10-09T01:33:43;14.00;99.90
59301;DHT22;45073;52.740;6.784;2023-10-09T01:36:10;14.00;99.90
59301;DHT22;45073;52.740;6.784;2023-10-09T01:38:40;14.00;99.90
59301;DHT22;45073;52.740;6.784;2023-10-09T01:41:12;14.10;99.90
59301;DHT22;45073;52.740;6.784;2023-10-09T01:43:42;14.10;99.90
59301;DHT22;45073;52.740;6.784;2023-10-09T01:46:13;14.10;99.90
59301;DHT22;45073;52.740;6.784;2023-10-09T01:48:42;14.10;99.90
59301;DHT22;45073;52.740;6.784;2023-10-09T01:51:15;14.10;99.90
59301;DHT22;45073;52.740;6.784;2023-10-09T01:53:46;14.00;99.90
59301;DHT22;45073;52.740;6.784;2023-10-09T01:56:19;14.10;99.90
59301;DHT22;45073;52.740;6.784;2023-10-09T01:58:45;14.10;99.90
59301;DHT22;45073;52.740;6.784;2023-10-09T02:01:13;14.10;99.90
59301;DHT22;45073;52.740;6.784;2023-10-09T02:03:40;14.20;99.90
59301;DHT22;45073;52.740;6.784;2023-10-09T02:06:08;14.20;99.90
59301;DHT22;45073;52.740;6.784;2023-10-09T02:08:54;14.10;99.90
59301;DHT22;45073;52.740;6.784;2023-10-09T02:11:21;14.10;99.90
59301;DHT22;45073;52.740;6.784;2023-10-09T02:14:07;14.10;99.90
59301;DHT22;45073;52.740;6.784;2023-10-09T02:16:48;14.10;99.90
59301;DHT22;45073;52.740;6.784;2023-10-09T02:19:33;14.10;99.90
59301;DHT22;45073;52.740;6.784;2023-10-09T02:22:02;14.00;99.90
59301;DHT22;45073;52.740;6.784;2023-10-09T02:24:41;14.10;99.90
59301;DHT22;45073;52.740;6.784;2023-10-09T02:27:18;14.00;99.90
59301;DHT22;45073;52.740;6.784;2023-10-09T02:30:09;14.00;99.90
59301;DHT22;45073;52.740;6.784;2023-10-09T02:32:44;14.00;99.90
59301;DHT22;45073;52.740;6.784;2023-10-09T02:35:13;14.00;99.90
59301;DHT22;45073;52.740;6.784;2023-10-09T02:38:04;14.00;99.90
59301;DHT22;45073;52.740;6.784;2023-10-09T02:40:35;14.00;99.90
59301;DHT22;45073;52.740;6.784;2023-10-09T02:43:26;14.00;99.90
59301;DHT22;45073;52.740;6.784;2023-10-09T02:45:52;14.10;99.90
59301;DHT22;45073;52.740;6.784;2023-10-09T02:48:18;14.10;99.90
59301;DHT22;45073;52.740;6.784;2023-10-09T02:50:51;14.00;99.90
59301;DHT22;45073;52.740;6.784;2023-10-09T02:53:17;14.00;99.90
59301;DHT22;45073;52.740;6.784;2023-10-09T02:55:54;14.10;99.90
59301;DHT22;45073;52.740;6.784;2023-10-09T02:58:38;14.10;99.90
59301;DHT22;45073;52.740;6.784;2023-10-09T03:01:12;14.00;99.90
59301;DHT22;45073;52.740;6.784;2023-10-09T03:03:41;14.10;99.90
59301;DHT22;45073;52.740;6.784;2023-10-09T03:06:13;14.20;99.90
59301;DHT22;45073;52.740;6.784;2023-10-09T03:08:39;14.10;99.90
59301;DHT22;45073;52.740;6.784;2023-10-09T03:11:08;14.20;99.90
59301;DHT22;45073;52.740;6.784;2023-10-09T03:13:47;14.20;99.90
59301;DHT22;45073;52.740;6.784;2023-10-09T03:16:13;14.20;99.90
59301;DHT22;45073;52.740;6.784;2023-10-09T03:18:53;14.20;99.90
59301;DHT22;45073;52.740;6.784;2023-10-09T03:21:19;14.30;99.90
59301;DHT22;45073;52.740;6.784;2023-10-09T03:23:48;14.20;99.90
59301;DHT22;45073;52.740;6.784;2023-10-09T03:26:18;14.30;99.90
59301;DHT22;45073;52.740;6.784;2023-10-09T03:28:48;14.30;99.90
59301;DHT22;45073;52.740;6.784;2023-10-09T03:31:14;14.40;99.90
59301;DHT22;45073;52.740;6.784;2023-10-09T03:33:40;14.30;99.90
59301;DHT22;45073;52.740;6.784;2023-10-09T03:36:07;14.40;99.90
59301;DHT22;45073;52.740;6.784;2023-10-09T03:38:38;14.30;99.90
59301;DHT22;45073;52.740;6.784;2023-10-09T03:41:07;14.30;99.90
59301;DHT22;45073;52.740;6.784;2023-10-09T03:43:36;14.30;99.90
59301;DHT22;45073;52.740;6.784;2023-10-09T03:46:08;14.30;99.90
59301;DHT22;45073;52.740;6.784;2023-10-09T03:48:47;14.40;99.90
59301;DHT22;45073;52.740;6.784;2023-10-09T03:51:13;14.40;99.90
59301;DHT22;45073;52.740;6.784;2023-10-09T03:53:47;14.50;99.90
59301;DHT22;45073;52.740;6.784;2023-10-09T03:56:12;14.40;99.90
59301;DHT22;45073;52.740;6.784;2023-10-09T03:58:59;14.40;99.90
59301;DHT22;45073;52.740;6.784;2023-10-09T04:01:25;14.40;99.90
59301;DHT22;45073;52.740;6.784;2023-10-09T04:03:55;14.40;99.90
59301;DHT22;45073;52.740;6.784;2023-10-09T04:06:25;14.50;99.90
59301;DHT22;45073;52.740;6.784;2023-10-09T04:08:56;14.50;99.90
59301;DHT22;45073;52.740;6.784;2023-10-09T04:11:24;14.50;99.90
59301;DHT22;45073;52.740;6.784;2023-10-09T04:13:50;14.50;99.90
59301;DHT22;45073;52.740;6.784;2023-10-09T04:16:18;14.60;99.90
59301;DHT22;45073;52.740;6.784;2023-10-09T04:18:56;14.60;99.90
59301;DHT22;45073;52.740;6.784;2023-10-09T04:21:23;14.50;99.90
59301;DHT22;45073;52.740;6.784;2023-10-09T04:24:06;14.60;99.90
59301;DHT22;45073;52.740;6.784;2023-10-09T04:26:48;14.70;99.90
59301;DHT22;45073;52.740;6.784;2023-10-09T04:29:19;14.70;99.90
59301;DHT22;45073;52.740;6.784;2023-10-09T04:31:54;14.80;99.90
59301;DHT22;45073;52.740;6.784;2023-10-09T04:34:25;14.80;99.90
59301;DHT22;45073;52.740;6.784;2023-10-09T04:36:51;14.80;99.90
59301;DHT22;45073;52.740;6.784;2023-10-09T04:39:25;14.70;99.90
59301;DHT22;45073;52.740;6.784;2023-10-09T04:41:57;14.80;99.90
59301;DHT22;45073;52.740;6.784;2023-10-09T04:44:45;14.80;99.90
59301;DHT22;45073;52.740;6.784;2023-10-09T04:47:29;14.80;99.90
59301;DHT22;45073;52.740;6.784;2023-10-09T04:50:11;14.90;99.90
59301;DHT22;45073;52.740;6.784;2023-10-09T04:52:42;14.90;99.90
59301;DHT22;45073;52.740;6.784;2023-10-09T04:55:08;14.90;99.90
59301;DHT22;45073;52.740;6.784;2023-10-09T04:57:38;14.90;99.90
59301;DHT22;45073;52.740;6.784;2023-10-09T05:00:15;14.90;99.90
59301;DHT22;45073;52.740;6.784;2023-10-09T05:02:50;15.00;99.90
59301;DHT22;45073;52.740;6.784;2023-10-09T05:05:26;14.90;99.90
59301;DHT22;45073;52.740;6.784;2023-10-09T05:08:04;15.00;99.90
59301;DHT22;45073;52.740;6.784;2023-10-09T05:10:45;15.00;99.90
59301;DHT22;45073;52.740;6.784;2023-10-09T05:13:35;15.10;99.90
59301;DHT22;45073;52.740;6.784;2023-10-09T05:16:14;15.10;99.90
59301;DHT22;45073;52.740;6.784;2023-10-09T05:18:53;15.10;99.90
59301;DHT22;45073;52.740;6.784;2023-10-09T05:21:39;15.10;99.90
59301;DHT22;45073;52.740;6.784;2023-10-09T05:24:08;15.00;99.90
59301;DHT22;45073;52.740;6.784;2023-10-09T05:29:15;15.10;99.90
59301;DHT22;45073;52.740;6.784;2023-10-09T05:32:00;15.20;99.90
59301;DHT22;45073;52.740;6.784;2023-10-09T05:34:26;15.20;99.90
59301;DHT22;45073;52.740;6.784;2023-10-09T05:37:06;15.30;99.90
59301;DHT22;45073;52.740;6.784;2023-10-09T05:39:53;15.20;99.90
59301;DHT22;45073;52.740;6.784;2023-10-09T05:42:35;15.20;99.90
59301;DHT22;45073;52.740;6.784;2023-10-09T05:45:12;15.30;99.90
59301;DHT22;45073;52.740;6.784;2023-10-09T05:47:44;15.30;99.90
59301;DHT22;45073;52.740;6.784;2023-10-09T05:50:22;15.30;99.90
59301;DHT22;45073;52.740;6.784;2023-10-09T05:52:49;15.40;99.90
59301;DHT22;45073;52.740;6.784;2023-10-09T05:55:18;15.40;99.90
59301;DHT22;45073;52.740;6.784;2023-10-09T05:57:53;15.40;99.90
59301;DHT22;45073;52.740;6.784;2023-10-09T06:00:29;15.40;99.90
59301;DHT22;45073;52.740;6.784;2023-10-09T06:03:13;15.40;99.90
59301;DHT22;45073;52.740;6.784;2023-10-09T06:05:45;15.50;99.90
59301;DHT22;45073;52.740;6.784;2023-10-09T06:08:24;15.60;99.90
59301;DHT22;45073;52.740;6.784;2023-10-09T06:11:14;15.60;99.90
59301;DHT22;45073;52.740;6.784;2023-10-09T06:14:05;15.60;99.90
59301;DHT22;45073;52.740;6.784;2023-10-09T06:16:39;15.70;99.90
59301;DHT22;45073;52.740;6.784;2023-10-09T06:19:06;15.70;99.90
59301;DHT22;45073;52.740;6.784;2023-10-09T06:21:41;15.70;99.90
59301;DHT22;45073;52.740;6.784;2023-10-09T06:24:26;15.70;99.90
59301;DHT22;45073;52.740;6.784;2023-10-09T06:26:59;15.80;99.90
59301;DHT22;45073;52.740;6.784;2023-10-09T06:29:29;15.90;99.90
59301;DHT22;45073;52.740;6.784;2023-10-09T06:34:47;15.90;99.90
59301;DHT22;45073;52.740;6.784;2023-10-09T06:37:40;16.00;99.90
59301;DHT22;45073;52.740;6.784;2023-10-09T06:40:33;16.00;99.90
59301;DHT22;45073;52.740;6.784;2023-10-09T06:43:02;16.00;99.90
59301;DHT22;45073;52.740;6.784;2023-10-09T06:48:21;16.10;99.90
59301;DHT22;45073;52.740;6.784;2023-10-09T06:53:47;16.20;99.90
59301;DHT22;45073;52.740;6.784;2023-10-09T06:56:22;16.20;99.90
59301;DHT22;45073;52.740;6.784;2023-10-09T06:58:51;16.20;99.90
59301;DHT22;45073;52.740;6.784;2023-10-09T07:01:27;16.20;99.90
59301;DHT22;45073;52.740;6.784;2023-10-09T07:04:05;16.20;99.90
59301;DHT22;45073;52.740;6.784;2023-10-09T07:06:49;16.20;99.90
59301;DHT22;45073;52.740;6.784;2023-10-09T07:09:17;16.30;99.90
59301;DHT22;45073;52.740;6.784;2023-10-09T07:11:46;16.40;99.90
59301;DHT22;45073;52.740;6.784;2023-10-09T07:14:23;16.40;99.90
59301;DHT22;45073;52.740;6.784;2023-10-09T07:19:28;16.40;99.90
59301;DHT22;45073;52.740;6.784;2023-10-09T07:22:03;16.40;99.90
59301;DHT22;45073;52.740;6.784;2023-10-09T07:24:32;16.50;99.90
59301;DHT22;45073;52.740;6.784;2023-10-09T07:27:09;16.50;99.90
59301;DHT22;45073;52.740;6.784;2023-10-09T07:29:36;16.50;99.90
59301;DHT22;45073;52.740;6.784;2023-10-09T07:32:17;16.50;99.90
59301;DHT22;45073;52.740;6.784;2023-10-09T07:34:49;16.60;99.90
59301;DHT22;45073;52.740;6.784;2023-10-09T07:37:27;16.60;99.90
59301;DHT22;45073;52.740;6.784;2023-10-09T07:39:56;16.70;99.90
59301;DHT22;45073;52.740;6.784;2023-10-09T07:42:23;16.70;99.90
59301;DHT22;45073;52.740;6.784;2023-10-09T07:44:59;16.70;99.90
59301;DHT22;45073;52.740;6.784;2023-10-09T07:47:37;16.80;99.90
59301;DHT22;45073;52.740;6.784;2023-10-09T07:50:27;16.80;99.90
59301;DHT22;45073;52.740;6.784;2023-10-09T07:53:16;16.80;99.90
59301;DHT22;45073;52.740;6.784;2023-10-09T07:55:55;16.80;99.90
59301;DHT22;45073;52.740;6.784;2023-10-09T07:58:25;16.80;99.90
59301;DHT22;45073;52.740;6.784;2023-10-09T08:00:54;16.80;99.90
59301;DHT22;45073;52.740;6.784;2023-10-09T08:03:24;16.80;99.90
59301;DHT22;45073;52.740;6.784;2023-10-09T08:05:51;16.90;99.90
59301;DHT22;45073;52.740;6.784;2023-10-09T08:08:19;16.90;99.90
59301;DHT22;45073;52.740;6.784;2023-10-09T08:10:59;16.90;99.90
59301;DHT22;45073;52.740;6.784;2023-10-09T08:13:43;16.90;99.90
59301;DHT22;45073;52.740;6.784;2023-10-09T08:16:14;17.00;99.90
59301;DHT22;45073;52.740;6.784;2023-10-09T08:18:47;17.00;99.90
59301;DHT22;45073;52.740;6.784;2023-10-09T08:21:17;17.00;99.90
59301;DHT22;45073;52.740;6.784;2023-10-09T08:23:42;17.00;99.90
59301;DHT22;45073;52.740;6.784;2023-10-09T08:26:15;17.10;99.90
59301;DHT22;45073;52.740;6.784;2023-10-09T08:28:55;17.10;99.90
59301;DHT22;45073;52.740;6.784;2023-10-09T08:31:40;17.10;99.90
59301;DHT22;45073;52.740;6.784;2023-10-09T08:34:15;17.10;99.90
59301;DHT22;45073;52.740;6.784;2023-10-09T08:36:51;17.10;99.90
59301;DHT22;45073;52.740;6.784;2023-10-09T08:39:20;17.20;99.90
59301;DHT22;45073;52.740;6.784;2023-10-09T08:41:56;17.20;99.90
59301;DHT22;45073;52.740;6.784;2023-10-09T08:44:24;17.20;99.90
59301;DHT22;45073;52.740;6.784;2023-10-09T08:46:57;17.30;99.90
59301;DHT22;45073;52.740;6.784;2023-10-09T08:49:25;17.30;99.90
59301;DHT22;45073;52.740;6.784;2023-10-09T08:51:51;17.30;99.90
59301;DHT22;45073;52.740;6.784;2023-10-09T08:54:18;17.30;99.90
59301;DHT22;45073;52.740;6.784;2023-10-09T08:56:45;17.40;99.90
59301;DHT22;45073;52.740;6.784;2023-10-09T08:59:18;17.40;99.90
59301;DHT22;45073;52.740;6.784;2023-10-09T09:01:48;17.40;99.90
59301;DHT22;45073;52.740;6.784;2023-10-09T09:04:37;17.50;99.90
59301;DHT22;45073;52.740;6.784;2023-10-09T09:09:59;17.40;99.90
59301;DHT22;45073;52.740;6.784;2023-10-09T09:12:43;17.40;99.90
59301;DHT22;45073;52.740;6.784;2023-10-09T09:15:16;17.50;99.90
59301;DHT22;45073;52.740;6.784;2023-10-09T09:17:45;17.50;99.90
59301;DHT22;45073;52.740;6.784;2023-10-09T09:20:38;17.50;99.90
59301;DHT22;45073;52.740;6.784;2023-10-09T09:23:10;17.50;99.90
59301;DHT22;45073;52.740;6.784;2023-10-09T09:25:47;17.50;99.90
59301;DHT22;45073;52.740;6.784;2023-10-09T09:28:14;17.50;99.90
59301;DHT22;45073;52.740;6.784;2023-10-09T09:30:45;17.50;99.90
59301;DHT22;45073;52.740;6.784;2023-10-09T09:33:20;17.50;99.90
59301;DHT22;45073;52.740;6.784;2023-10-09T09:36:09;17.50;99.90
59301;DHT22;45073;52.740;6.784;2023-10-09T09:38:38;17.50;99.90
59301;DHT22;45073;52.740;6.784;2023-10-09T09:41:17;17.50;99.90
59301;DHT22;45073;52.740;6.784;2023-10-09T09:43:58;17.40;99.90
59301;DHT22;45073;52.740;6.784;2023-10-09T09:46:32;17.30;99.90
59301;DHT22;45073;52.740;6.784;2023-10-09T09:49:03;17.40;99.90
59301;DHT22;45073;52.740;6.784;2023-10-09T09:51:31;17.40;99.90
59301;DHT22;45073;52.740;6.784;2023-10-09T09:53:57;17.40;99.90
59301;DHT22;45073;52.740;6.784;2023-10-09T09:56:26;17.40;99.90
59301;DHT22;45073;52.740;6.784;2023-10-09T09:58:53;17.40;99.90
59301;DHT22;45073;52.740;6.784;2023-10-09T10:01:20;17.40;99.90
59301;DHT22;45073;52.740;6.784;2023-10-09T10:04:01;17.40;99.90
59301;DHT22;45073;52.740;6.784;2023-10-09T10:06:30;17.40;99.90
59301;DHT22;45073;52.740;6.784;2023-10-09T10:08:58;17.40;99.90
59301;DHT22;45073;52.740;6.784;2023-10-09T10:11:47;17.50;99.90
59301;DHT22;45073;52.740;6.784;2023-10-09T10:14:17;17.50;99.90
59301;DHT22;45073;52.740;6.784;2023-10-09T10:17:07;17.50;99.90
59301;DHT22;45073;52.740;6.784;2023-10-09T10:20:04;17.50;99.90
59301;DHT22;45073;52.740;6.784;2023-10-09T10:22:42;17.60;99.90
59301;DHT22;45073;52.740;6.784;2023-10-09T10:31:06;17.80;99.90
59301;DHT22;45073;52.740;6.784;2023-10-09T10:36:19;18.00;99.90
59301;DHT22;45073;52.740;6.784;2023-10-09T10:38:59;18.10;99.90
59301;DHT22;45073;52.740;6.784;2023-10-09T10:41:56;18.20;99.90
59301;DHT22;45073;52.740;6.784;2023-10-09T10:44:27;18.20;99.90
59301;DHT22;45073;52.740;6.784;2023-10-09T10:47:02;18.30;99.90
59301;DHT22;45073;52.740;6.784;2023-10-09T10:49:29;18.40;99.90
59301;DHT22;45073;52.740;6.784;2023-10-09T10:52:06;18.40;99.90
59301;DHT22;45073;52.740;6.784;2023-10-09T10:54:42;18.40;99.90
59301;DHT22;45073;52.740;6.784;2023-10-09T10:57:23;18.30;99.90
59301;DHT22;45073;52.740;6.784;2023-10-09T10:59:57;18.40;99.90
59301;DHT22;45073;52.740;6.784;2023-10-09T11:02:43;18.30;99.90
59301;DHT22;45073;52.740;6.784;2023-10-09T11:05:09;18.30;99.90
59301;DHT22;45073;52.740;6.784;2023-10-09T11:07:51;18.30;99.90
59301;DHT22;45073;52.740;6.784;2023-10-09T11:10:22;18.30;99.90
59301;DHT22;45073;52.740;6.784;2023-10-09T11:12:57;18.20;99.90
59301;DHT22;45073;52.740;6.784;2023-10-09T11:15:36;18.30;99.90
59301;DHT22;45073;52.740;6.784;2023-10-09T11:18:14;18.30;99.90
59301;DHT22;45073;52.740;6.784;2023-10-09T11:20:50;18.30;99.90
59301;DHT22;45073;52.740;6.784;2023-10-09T11:23:22;18.40;99.90
59301;DHT22;45073;52.740;6.784;2023-10-09T11:26:01;18.40;99.90
59301;DHT22;45073;52.740;6.784;2023-10-09T11:28:46;18.40;99.90
59301;DHT22;45073;52.740;6.784;2023-10-09T11:31:22;18.40;99.90
59301;DHT22;45073;52.740;6.784;2023-10-09T11:33:52;18.50;99.90
59301;DHT22;45073;52.740;6.784;2023-10-09T11:36:22;18.50;99.90
59301;DHT22;45073;52.740;6.784;2023-10-09T11:39:01;18.50;99.90
59301;DHT22;45073;52.740;6.784;2023-10-09T11:42:14;18.60;99.90
59301;DHT22;45073;52.740;6.784;2023-10-09T11:44:41;18.60;99.90
59301;DHT22;45073;52.740;6.784;2023-10-09T11:47:11;18.60;99.90
59301;DHT22;45073;52.740;6.784;2023-10-09T11:49:54;18.70;99.90
59301;DHT22;45073;52.740;6.784;2023-10-09T11:52:26;18.70;99.90
59301;DHT22;45073;52.740;6.784;2023-10-09T11:55:10;18.80;99.90
59301;DHT22;45073;52.740;6.784;2023-10-09T11:57:40;18.80;99.90
59301;DHT22;45073;52.740;6.784;2023-10-09T12:00:06;18.90;99.90
59301;DHT22;45073;52.740;6.784;2023-10-09T12:02:55;18.90;99.90
59301;DHT22;45073;52.740;6.784;2023-10-09T12:05:21;18.90;99.90
59301;DHT22;45073;52.740;6.784;2023-10-09T12:07:48;18.90;99.90
59301;DHT22;45073;52.740;6.784;2023-10-09T12:10:21;18.90;99.90
59301;DHT22;45073;52.740;6.784;2023-10-09T12:12:54;18.90;99.90
59301;DHT22;45073;52.740;6.784;2023-10-09T12:15:24;18.90;99.90
59301;DHT22;45073;52.740;6.784;2023-10-09T12:17:50;18.90;99.90
59301;DHT22;45073;52.740;6.784;2023-10-09T12:20:19;18.80;99.90
59301;DHT22;45073;52.740;6.784;2023-10-09T12:23:01;18.80;99.90
59301;DHT22;45073;52.740;6.784;2023-10-09T12:25:32;18.90;99.90
59301;DHT22;45073;52.740;6.784;2023-10-09T12:27:59;18.90;99.90
59301;DHT22;45073;52.740;6.784;2023-10-09T12:30:27;18.90;99.90
59301;DHT22;45073;52.740;6.784;2023-10-09T12:32:54;18.90;99.90
59301;DHT22;45073;52.740;6.784;2023-10-09T12:35:20;18.90;99.90
59301;DHT22;45073;52.740;6.784;2023-10-09T12:37:46;18.90;99.90
59301;DHT22;45073;52.740;6.784;2023-10-09T12:40:12;18.90;99.90
59301;DHT22;45073;52.740;6.784;2023-10-09T12:42:38;18.90;99.90
59301;DHT22;45073;52.740;6.784;2023-10-09T12:45:06;18.90;99.90
59301;DHT22;45073;52.740;6.784;2023-10-09T12:47:35;19.00;99.90
59301;DHT22;45073;52.740;6.784;2023-10-09T12:50:05;19.00;99.90
59301;DHT22;45073;52.740;6.784;2023-10-09T12:52:39;19.10;99.90
59301;DHT22;45073;52.740;6.784;2023-10-09T12:55:05;19.10;99.90
59301;DHT22;45073;52.740;6.784;2023-10-09T12:57:34;19.20;99.90
59301;DHT22;45073;52.740;6.784;2023-10-09T13:00:00;19.30;99.90
59301;DHT22;45073;52.740;6.784;2023-10-09T13:02:25;19.40;99.90
59301;DHT22;45073;52.740;6.784;2023-10-09T13:04:58;19.50;99.90
59301;DHT22;45073;52.740;6.784;2023-10-09T13:07:25;19.60;99.90
59301;DHT22;45073;52.740;6.784;2023-10-09T13:09:51;19.60;99.90
59301;DHT22;45073;52.740;6.784;2023-10-09T13:12:35;19.70;99.90
59301;DHT22;45073;52.740;6.784;2023-10-09T13:15:08;19.70;99.90
59301;DHT22;45073;52.740;6.784;2023-10-09T13:17:35;19.80;99.90
59301;DHT22;45073;52.740;6.784;2023-10-09T13:20:02;19.90;99.90
59301;DHT22;45073;52.740;6.784;2023-10-09T13:22:41;19.90;99.90
59301;DHT22;45073;52.740;6.784;2023-10-09T13:25:11;19.90;99.90
59301;DHT22;45073;52.740;6.784;2023-10-09T13:27:43;20.00;99.90
59301;DHT22;45073;52.740;6.784;2023-10-09T13:30:17;20.00;99.90
59301;DHT22;45073;52.740;6.784;2023-10-09T13:32:48;20.00;99.90
59301;DHT22;45073;52.740;6.784;2023-10-09T13:35:18;20.00;99.90
59301;DHT22;45073;52.740;6.784;2023-10-09T13:37:45;19.90;99.90
59301;DHT22;45073;52.740;6.784;2023-10-09T13:40:20;19.90;99.90
59301;DHT22;45073;52.740;6.784;2023-10-09T13:42:56;19.90;99.90
59301;DHT22;45073;52.740;6.784;2023-10-09T13:45:25;19.90;99.90
59301;DHT22;45073;52.740;6.784;2023-10-09T13:47:54;19.80;99.90
59301;DHT22;45073;52.740;6.784;2023-10-09T13:50:21;19.80;99.90
59301;DHT22;45073;52.740;6.784;2023-10-09T13:52:48;19.80;99.90
59301;DHT22;45073;52.740;6.784;2023-10-09T13:55:15;19.80;99.90
59301;DHT22;45073;52.740;6.784;2023-10-09T13:57:41;19.80;99.90
59301;DHT22;45073;52.740;6.784;2023-10-09T14:00:14;19.90;99.90
59301;DHT22;45073;52.740;6.784;2023-10-09T14:02:58;19.90;99.90
59301;DHT22;45073;52.740;6.784;2023-10-09T14:05:27;19.90;99.90
59301;DHT22;45073;52.740;6.784;2023-10-09T14:07:53;19.90;99.90
59301;DHT22;45073;52.740;6.784;2023-10-09T14:10:26;19.90;99.90
59301;DHT22;45073;52.740;6.784;2023-10-09T14:12:55;19.90;99.90
59301;DHT22;45073;52.740;6.784;2023-10-09T14:15:23;20.10;99.90
59301;DHT22;45073;52.740;6.784;2023-10-09T14:17:48;20.20;99.90
59301;DHT22;45073;52.740;6.784;2023-10-09T14:20:21;20.40;99.90
59301;DHT22;45073;52.740;6.784;2023-10-09T14:22:58;20.40;99.90
59301;DHT22;45073;52.740;6.784;2023-10-09T14:25:34;20.30;99.90
59301;DHT22;45073;52.740;6.784;2023-10-09T14:28:08;20.20;99.90
59301;DHT22;45073;52.740;6.784;2023-10-09T14:30:35;20.20;99.90
59301;DHT22;45073;52.740;6.784;2023-10-09T14:33:13;20.10;99.90
59301;DHT22;45073;52.740;6.784;2023-10-09T14:35:43;20.10;99.90
59301;DHT22;45073;52.740;6.784;2023-10-09T14:38:10;20.00;99.90
59301;DHT22;45073;52.740;6.784;2023-10-09T14:40:41;19.90;99.90
59301;DHT22;45073;52.740;6.784;2023-10-09T14:43:08;19.90;99.90
59301;DHT22;45073;52.740;6.784;2023-10-09T14:45:41;19.90;99.90
59301;DHT22;45073;52.740;6.784;2023-10-09T14:48:08;19.80;99.90
59301;DHT22;45073;52.740;6.784;2023-10-09T14:50:36;19.70;99.90
59301;DHT22;45073;52.740;6.784;2023-10-09T14:53:04;19.70;99.90
59301;DHT22;45073;52.740;6.784;2023-10-09T14:55:30;19.60;99.90
59301;DHT22;45073;52.740;6.784;2023-10-09T14:57:57;19.60;99.90
59301;DHT22;45073;52.740;6.784;2023-10-09T15:00:24;19.60;99.90
59301;DHT22;45073;52.740;6.784;2023-10-09T15:02:50;19.50;99.90
59301;DHT22;45073;52.740;6.784;2023-10-09T15:05:18;19.40;99.90
59301;DHT22;45073;52.740;6.784;2023-10-09T15:07:44;19.50;99.90
59301;DHT22;45073;52.740;6.784;2023-10-09T15:10:10;19.40;99.90
59301;DHT22;45073;52.740;6.784;2023-10-09T15:12:41;19.40;99.90
59301;DHT22;45073;52.740;6.784;2023-10-09T15:15:09;19.40;99.90
59301;DHT22;45073;52.740;6.784;2023-10-09T15:17:39;19.30;99.90
59301;DHT22;45073;52.740;6.784;2023-10-09T15:20:10;19.20;99.90
59301;DHT22;45073;52.740;6.784;2023-10-09T15:22:40;19.20;99.90
59301;DHT22;45073;52.740;6.784;2023-10-09T15:25:06;19.20;99.90
59301;DHT22;45073;52.740;6.784;2023-10-09T15:27:32;19.10;99.90
59301;DHT22;45073;52.740;6.784;2023-10-09T15:29:57;19.10;99.90
59301;DHT22;45073;52.740;6.784;2023-10-09T15:32:23;19.10;99.90
59301;DHT22;45073;52.740;6.784;2023-10-09T15:34:57;19.10;99.90
59301;DHT22;45073;52.740;6.784;2023-10-09T15:37:23;19.10;99.90
59301;DHT22;45073;52.740;6.784;2023-10-09T15:39:48;19.00;99.90
59301;DHT22;45073;52.740;6.784;2023-10-09T15:42:15;19.00;99.90
59301;DHT22;45073;52.740;6.784;2023-10-09T15:44:42;19.00;99.90
59301;DHT22;45073;52.740;6.784;2023-10-09T15:47:07;19.00;99.90
59301;DHT22;45073;52.740;6.784;2023-10-09T15:49:37;19.00;99.90
59301;DHT22;45073;52.740;6.784;2023-10-09T15:52:06;19.00;99.90
59301;DHT22;45073;52.740;6.784;2023-10-09T15:54:34;18.90;99.90
59301;DHT22;45073;52.740;6.784;2023-10-09T15:57:00;18.90;99.90
59301;DHT22;45073;52.740;6.784;2023-10-09T15:59:25;18.90;99.90
59301;DHT22;45073;52.740;6.784;2023-10-09T16:01:51;18.90;99.90
59301;DHT22;45073;52.740;6.784;2023-10-09T16:04:18;18.90;99.90
59301;DHT22;45073;52.740;6.784;2023-10-09T16:06:44;18.80;99.90
59301;DHT22;45073;52.740;6.784;2023-10-09T16:09:09;18.80;99.90
59301;DHT22;45073;52.740;6.784;2023-10-09T16:11:37;18.80;99.90
59301;DHT22;45073;52.740;6.784;2023-10-09T16:14:05;18.80;99.90
59301;DHT22;45073;52.740;6.784;2023-10-09T16:16:35;18.80;99.90
59301;DHT22;45073;52.740;6.784;2023-10-09T16:19:07;18.80;99.90
59301;DHT22;45073;52.740;6.784;2023-10-09T16:21:35;18.70;99.90
59301;DHT22;45073;52.740;6.784;2023-10-09T16:24:01;18.70;99.90
59301;DHT22;45073;52.740;6.784;2023-10-09T16:26:27;18.70;99.90
59301;DHT22;45073;52.740;6.784;2023-10-09T16:28:54;18.70;99.90
59301;DHT22;45073;52.740;6.784;2023-10-09T16:31:19;18.70;99.90